createdAt,value
2023-09-27T00:01:13.662Z,16.66
2023-09-27T00:03:40.378Z,16.57
2023-09-27T00:06:08.511Z,16.63
2023-09-27T00:08:35.542Z,16.63
2023-09-27T00:11:03.834Z,16.62
2023-09-27T00:13:30.568Z,16.60
2023-09-27T00:15:57.229Z,16.57
2023-09-27T00:18:24.302Z,16.60
2023-09-27T00:20:52.327Z,16.56
2023-09-27T00:23:20.377Z,15.99
2023-09-27T00:25:47.028Z,14.54
2023-09-27T00:28:13.632Z,13.84
2023-09-27T00:30:40.297Z,15.97
2023-09-27T00:33:07.120Z,16.23
2023-09-27T00:35:33.811Z,16.38
2023-09-27T00:38:00.480Z,16.32
2023-09-27T00:40:29.202Z,16.33
2023-09-27T00:42:56.084Z,16.38
2023-09-27T00:45:22.731Z,15.61
2023-09-27T00:47:51.954Z,15.83
2023-09-27T00:50:19.116Z,16.25
2023-09-27T00:52:47.917Z,16.27
2023-09-27T00:55:17.828Z,16.22
2023-09-27T00:57:46.311Z,16.16
2023-09-27T01:00:16.190Z,16.20
2023-09-27T01:02:43.123Z,16.17
2023-09-27T01:05:10.661Z,16.17
2023-09-27T01:07:39.739Z,16.29
2023-09-27T01:10:08.915Z,16.23
2023-09-27T01:12:36.210Z,16.23
2023-09-27T01:15:05.111Z,16.27
2023-09-27T01:17:31.886Z,16.20
2023-09-27T01:19:58.645Z,16.16
2023-09-27T01:22:25.397Z,16.17
2023-09-27T01:24:55.741Z,16.19
2023-09-27T01:27:23.491Z,16.16
2023-09-27T01:29:50.268Z,16.20
2023-09-27T01:32:18.608Z,16.20
2023-09-27T01:34:45.685Z,16.11
2023-09-27T01:37:12.669Z,16.11
2023-09-27T01:39:39.334Z,16.15
2023-09-27T01:42:07.400Z,16.05
2023-09-27T01:44:34.018Z,16.06
2023-09-27T01:47:00.654Z,16.01
2023-09-27T01:49:27.411Z,16.05
2023-09-27T01:51:54.197Z,15.97
2023-09-27T01:54:20.851Z,16.06
2023-09-27T01:56:47.480Z,15.97
2023-09-27T01:59:15.540Z,15.97
2023-09-27T02:01:42.240Z,16.04
2023-09-27T02:04:08.990Z,15.95
2023-09-27T02:06:35.701Z,15.33
2023-09-27T02:09:02.382Z,15.86
2023-09-27T02:11:29.130Z,14.65
2023-09-27T02:13:55.889Z,15.64
2023-09-27T02:16:23.970Z,15.87
2023-09-27T02:18:50.789Z,15.78
2023-09-27T02:21:17.618Z,15.82
2023-09-27T02:23:44.319Z,15.78
2023-09-27T02:26:11.305Z,15.77
2023-09-27T02:28:37.956Z,15.75
2023-09-27T02:31:09.784Z,15.75
2023-09-27T02:33:38.443Z,15.75
2023-09-27T02:36:05.601Z,15.73
2023-09-27T02:38:32.370Z,15.77
2023-09-27T02:40:59.092Z,15.81
2023-09-27T02:43:25.803Z,15.76
2023-09-27T02:45:53.477Z,15.69
2023-09-27T02:48:20.258Z,15.74
2023-09-27T02:50:49.845Z,15.48
2023-09-27T02:53:16.631Z,14.57
2023-09-27T02:55:43.634Z,15.35
2023-09-27T02:58:10.281Z,15.52
2023-09-27T03:00:37.711Z,15.52
2023-09-27T03:03:04.779Z,15.54
2023-09-27T03:05:36.452Z,14.96
2023-09-27T03:08:05.354Z,15.47
2023-09-27T03:10:32.588Z,15.44
2023-09-27T03:13:00.090Z,15.47
2023-09-27T03:15:27.046Z,15.61
2023-09-27T03:17:53.760Z,15.49
2023-09-27T03:20:23.684Z,15.45
2023-09-27T03:22:50.627Z,15.45
2023-09-27T03:25:19.508Z,15.47
2023-09-27T03:27:47.014Z,15.49
2023-09-27T03:30:13.916Z,15.49
2023-09-27T03:32:40.593Z,14.98
2023-09-27T03:35:08.674Z,14.43
2023-09-27T03:37:38.206Z,12.51
2023-09-27T03:40:05.303Z,13.92
2023-09-27T03:42:33.858Z,14.89
2023-09-27T03:45:00.492Z,15.19
2023-09-27T03:47:27.543Z,15.16
2023-09-27T03:49:54.286Z,15.25
2023-09-27T03:52:21.038Z,15.31
2023-09-27T03:54:47.671Z,15.37
2023-09-27T03:57:14.282Z,15.40
2023-09-27T03:59:42.236Z,15.38
2023-09-27T04:02:08.960Z,13.78
2023-09-27T04:04:35.960Z,15.00
2023-09-27T04:07:02.744Z,15.10
2023-09-27T04:09:30.024Z,15.11
2023-09-27T04:11:56.851Z,15.15
2023-09-27T04:14:23.770Z,15.15
2023-09-27T04:16:51.812Z,15.10
2023-09-27T04:19:19.062Z,15.07
2023-09-27T04:21:46.374Z,15.15
2023-09-27T04:24:13.077Z,15.05
2023-09-27T04:26:39.728Z,15.01
2023-09-27T04:29:08.427Z,15.04
2023-09-27T04:31:36.026Z,15.04
2023-09-27T04:34:04.240Z,15.03
2023-09-27T04:36:30.847Z,15.01
2023-09-27T04:38:57.480Z,15.09
2023-09-27T04:41:24.131Z,15.10
2023-09-27T04:43:50.943Z,15.10
2023-09-27T04:46:19.284Z,15.08
2023-09-27T04:48:46.515Z,15.15
2023-09-27T04:51:14.592Z,14.92
2023-09-27T04:53:41.470Z,14.74
2023-09-27T04:56:08.821Z,14.94
2023-09-27T04:58:37.712Z,14.96
2023-09-27T05:01:07.155Z,15.02
2023-09-27T05:03:34.392Z,14.99
2023-09-27T05:06:01.545Z,15.03
2023-09-27T05:08:29.610Z,14.98
2023-09-27T05:10:57.447Z,15.02
2023-09-27T05:13:24.360Z,14.94
2023-09-27T05:15:51.328Z,14.84
2023-09-27T05:18:18.055Z,14.80
2023-09-27T05:20:45.241Z,14.81
2023-09-27T05:23:12.015Z,14.82
2023-09-27T05:25:40.095Z,14.88
2023-09-27T05:28:06.757Z,14.85
2023-09-27T05:30:33.488Z,14.92
2023-09-27T05:33:00.278Z,14.88
2023-09-27T05:35:27.187Z,14.86
2023-09-27T05:37:53.954Z,14.87
2023-09-27T05:40:20.698Z,14.90
2023-09-27T05:42:48.705Z,14.89
2023-09-27T05:45:15.498Z,14.88
2023-09-27T05:47:42.620Z,14.84
2023-09-27T05:50:12.397Z,14.73
2023-09-27T05:52:40.284Z,14.85
2023-09-27T05:55:08.205Z,14.40
2023-09-27T05:57:34.953Z,13.87
2023-09-27T06:00:14.167Z,13.38
2023-09-27T06:02:41.225Z,14.40
2023-09-27T06:05:09.082Z,14.66
2023-09-27T06:07:35.816Z,14.78
2023-09-27T06:10:02.542Z,14.79
2023-09-27T06:12:29.404Z,14.74
2023-09-27T06:14:56.040Z,14.73
2023-09-27T06:17:24.550Z,14.83
2023-09-27T06:19:51.277Z,14.80
2023-09-27T06:22:18.060Z,14.74
2023-09-27T06:24:46.963Z,14.73
2023-09-27T06:27:13.642Z,14.59
2023-09-27T06:29:41.453Z,14.54
2023-09-27T06:32:08.582Z,14.72
2023-09-27T06:34:36.685Z,13.77
2023-09-27T06:37:03.309Z,14.08
2023-09-27T06:39:29.982Z,14.50
2023-09-27T06:41:56.838Z,14.62
2023-09-27T06:44:23.505Z,14.69
2023-09-27T06:46:50.983Z,14.56
2023-09-27T06:49:18.062Z,14.55
2023-09-27T06:51:46.282Z,14.70
2023-09-27T06:54:12.925Z,14.58
2023-09-27T06:56:40.261Z,14.43
2023-09-27T06:59:07.052Z,14.61
2023-09-27T07:01:33.815Z,14.82
2023-09-27T07:04:04.635Z,14.81
2023-09-27T07:06:31.389Z,15.04
2023-09-27T07:08:59.520Z,15.64
2023-09-27T07:11:26.446Z,16.68
2023-09-27T07:13:53.310Z,17.16
2023-09-27T07:16:21.757Z,17.79
2023-09-27T07:18:51.731Z,18.51
2023-09-27T07:21:21.076Z,18.72
2023-09-27T07:23:48.728Z,18.83
2023-09-27T07:26:17.421Z,18.02
2023-09-27T07:28:45.093Z,15.41
2023-09-27T07:31:12.567Z,16.84
2023-09-27T07:33:39.276Z,19.66
2023-09-27T07:36:09.755Z,18.81
2023-09-27T07:38:38.382Z,19.54
2023-09-27T07:41:05.670Z,20.81
2023-09-27T07:43:33.773Z,20.52
2023-09-27T07:46:01.982Z,20.29
2023-09-27T07:48:30.434Z,20.00
2023-09-27T07:50:57.049Z,19.06
2023-09-27T07:53:23.691Z,17.73
2023-09-27T07:55:52.400Z,17.79
2023-09-27T07:58:19.734Z,16.44
2023-09-27T08:00:47.686Z,16.14
2023-09-27T08:03:15.609Z,16.94
2023-09-27T08:05:46.326Z,16.71
2023-09-27T08:08:14.857Z,17.45
2023-09-27T08:10:44.819Z,19.51
2023-09-27T08:13:13.077Z,19.63
2023-09-27T08:15:40.658Z,19.99
2023-09-27T08:18:09.202Z,21.96
2023-09-27T08:20:36.284Z,22.65
2023-09-27T08:23:03.673Z,21.85
2023-09-27T08:25:30.399Z,22.62
2023-09-27T08:27:57.605Z,23.52
2023-09-27T08:30:24.609Z,23.49
2023-09-27T08:32:52.632Z,23.33
2023-09-27T08:35:20.957Z,23.46
2023-09-27T08:37:48.689Z,22.87
2023-09-27T08:40:16.372Z,23.20
2023-09-27T08:42:44.152Z,24.20
2023-09-27T08:45:13.289Z,23.31
2023-09-27T08:47:42.282Z,19.99
2023-09-27T08:50:15.848Z,18.75
2023-09-27T08:52:49.693Z,17.35
2023-09-27T08:55:17.970Z,18.42
2023-09-27T08:57:47.137Z,17.91
2023-09-27T09:00:21.173Z,18.04
2023-09-27T09:02:50.591Z,19.28
2023-09-27T09:05:17.425Z,18.97
2023-09-27T09:07:46.584Z,19.29
2023-09-27T09:10:14.724Z,20.16
2023-09-27T09:12:42.776Z,20.75
2023-09-27T09:15:15.678Z,18.96
2023-09-27T09:17:49.326Z,20.36
2023-09-27T09:20:24.713Z,21.30
2023-09-27T09:22:55.870Z,20.73
2023-09-27T09:25:23.800Z,25.02
2023-09-27T09:28:04.196Z,25.80
2023-09-27T09:30:37.508Z,24.24
2023-09-27T09:33:09.921Z,21.68
2023-09-27T09:35:37.746Z,21.96
2023-09-27T09:38:05.825Z,21.88
2023-09-27T09:40:33.067Z,23.62
2023-09-27T09:43:01.094Z,21.43
2023-09-27T09:45:29.963Z,19.93
2023-09-27T09:47:57.655Z,20.62
2023-09-27T09:50:24.766Z,19.64
2023-09-27T09:52:58.362Z,20.01
2023-09-27T09:55:45.665Z,20.46
2023-09-27T09:58:30.647Z,20.09
2023-09-27T10:01:02.207Z,20.75
2023-09-27T10:03:32.286Z,20.15
2023-09-27T10:06:02.633Z,20.77
2023-09-27T10:08:33.781Z,19.86
2023-09-27T10:11:04.925Z,19.63
2023-09-27T10:13:34.969Z,21.13
2023-09-27T10:16:02.547Z,20.84
2023-09-27T10:18:31.069Z,22.60
2023-09-27T10:21:09.217Z,21.08
2023-09-27T10:23:58.314Z,22.10
2023-09-27T10:26:38.147Z,21.50
2023-09-27T10:29:16.354Z,22.31
2023-09-27T10:32:22.949Z,23.14
2023-09-27T10:34:50.604Z,20.89
2023-09-27T10:37:19.716Z,20.50
2023-09-27T10:40:05.949Z,20.84
2023-09-27T10:42:44.059Z,21.30
2023-09-27T10:45:11.055Z,22.61
2023-09-27T10:47:37.871Z,21.29
2023-09-27T10:50:05.645Z,20.69
2023-09-27T10:52:32.410Z,24.73
2023-09-27T10:55:09.609Z,24.87
2023-09-27T10:57:36.428Z,22.06
2023-09-27T11:00:10.866Z,22.87
2023-09-27T11:02:38.024Z,22.01
2023-09-27T11:05:05.911Z,22.51
2023-09-27T11:07:47.180Z,21.79
2023-09-27T11:10:32.093Z,24.17
2023-09-27T11:13:10.956Z,21.18
2023-09-27T11:15:39.641Z,21.71
2023-09-27T11:18:08.608Z,21.64
2023-09-27T11:20:35.914Z,21.32
2023-09-27T11:23:03.423Z,22.00
2023-09-27T11:25:31.271Z,22.86
2023-09-27T11:27:58.191Z,22.52
2023-09-27T11:30:31.315Z,22.75
2023-09-27T11:33:00.670Z,20.90
2023-09-27T11:35:27.627Z,21.49
2023-09-27T11:38:09.076Z,20.08
2023-09-27T11:40:37.195Z,20.81
2023-09-27T11:43:04.276Z,21.93
2023-09-27T11:45:42.748Z,22.48
2023-09-27T11:48:11.060Z,22.29
2023-09-27T11:50:38.647Z,21.49
2023-09-27T11:53:05.782Z,22.25
2023-09-27T11:55:32.561Z,21.85
2023-09-27T11:58:00.197Z,22.27
2023-09-27T12:00:27.280Z,21.90
2023-09-27T12:02:58.025Z,21.59
2023-09-27T12:05:27.565Z,21.55
2023-09-27T12:07:54.693Z,21.42
2023-09-27T12:10:21.635Z,21.57
2023-09-27T12:12:49.665Z,21.45
2023-09-27T12:15:16.498Z,20.13
2023-09-27T12:17:43.940Z,19.86
2023-09-27T12:20:22.447Z,19.97
2023-09-27T12:22:55.545Z,21.08
2023-09-27T12:25:22.181Z,21.55
2023-09-27T12:27:48.827Z,21.44
2023-09-27T12:30:15.609Z,21.00
2023-09-27T12:32:42.383Z,19.98
2023-09-27T12:35:09.343Z,20.58
2023-09-27T12:37:36.655Z,21.73
2023-09-27T12:40:05.688Z,21.72
2023-09-27T12:42:32.516Z,21.27
2023-09-27T12:44:59.373Z,21.32
2023-09-27T12:47:26.798Z,21.64
2023-09-27T12:49:53.610Z,21.64
2023-09-27T12:52:20.340Z,21.79
2023-09-27T12:54:48.524Z,21.73
2023-09-27T12:57:16.522Z,21.27
2023-09-27T12:59:43.186Z,21.12
2023-09-27T13:02:09.826Z,21.59
2023-09-27T13:04:36.579Z,21.61
2023-09-27T13:07:04.230Z,21.70
2023-09-27T13:09:30.942Z,21.57
2023-09-27T13:11:57.740Z,21.09
2023-09-27T13:14:25.738Z,20.32
2023-09-27T13:16:52.560Z,20.16
2023-09-27T13:19:19.266Z,20.27
2023-09-27T13:21:47.217Z,20.82
2023-09-27T13:24:14.084Z,20.43
2023-09-27T13:26:40.981Z,20.21
2023-09-27T13:29:08.047Z,21.18
2023-09-27T13:31:36.090Z,20.12
2023-09-27T13:34:10.044Z,19.96
2023-09-27T13:36:40.373Z,19.97
2023-09-27T13:39:07.459Z,20.10
2023-09-27T13:41:41.846Z,19.92
2023-09-27T13:44:09.140Z,19.85
2023-09-27T13:46:37.255Z,19.94
2023-09-27T13:49:04.431Z,20.34
2023-09-27T13:51:35.865Z,20.01
2023-09-27T13:54:02.600Z,19.88
2023-09-27T13:56:29.787Z,19.84
2023-09-27T13:58:56.433Z,19.81
2023-09-27T14:01:23.167Z,19.81
2023-09-27T14:03:51.217Z,19.79
2023-09-27T14:06:18.082Z,20.11
2023-09-27T14:08:44.848Z,19.88
2023-09-27T14:11:13.202Z,19.79
2023-09-27T14:13:40.007Z,19.82
2023-09-27T14:16:08.453Z,19.78
2023-09-27T14:18:35.259Z,20.41
2023-09-27T14:21:04.324Z,21.66
2023-09-27T14:23:31.043Z,21.52
2023-09-27T14:25:57.721Z,21.80
2023-09-27T14:28:25.380Z,21.73
2023-09-27T14:30:52.068Z,21.44
2023-09-27T14:33:19.216Z,21.27
2023-09-27T14:38:18.213Z,21.68
2023-09-27T14:40:44.801Z,21.36
2023-09-27T14:43:11.484Z,21.93
2023-09-27T14:45:38.561Z,21.79
2023-09-27T14:48:05.841Z,21.89
2023-09-27T14:50:32.675Z,21.62
2023-09-27T14:52:59.720Z,21.68
2023-09-27T14:55:28.108Z,21.89
2023-09-27T14:57:54.898Z,21.45
2023-09-27T15:00:23.715Z,20.75
2023-09-27T15:02:50.757Z,20.65
2023-09-27T15:05:17.544Z,20.58
2023-09-27T15:07:44.278Z,20.57
2023-09-27T15:10:11.255Z,20.58
2023-09-27T15:12:39.497Z,20.60
2023-09-27T15:15:07.148Z,20.56
2023-09-27T15:17:38.783Z,20.61
2023-09-27T15:20:06.865Z,20.55
2023-09-27T15:22:34.019Z,20.56
2023-09-27T15:25:00.762Z,20.61
2023-09-27T15:27:27.423Z,20.57
2023-09-27T15:29:55.529Z,20.57
2023-09-27T15:32:22.257Z,20.54
2023-09-27T15:34:49.033Z,20.58
2023-09-27T15:37:16.212Z,20.63
2023-09-27T15:39:43.060Z,20.64
2023-09-27T15:42:10.570Z,20.60
2023-09-27T15:44:41.396Z,20.58
2023-09-27T15:47:12.518Z,20.62
2023-09-27T15:49:39.182Z,20.64
2023-09-27T15:52:05.866Z,20.65
2023-09-27T15:54:32.469Z,20.66
2023-09-27T15:56:59.128Z,20.66
2023-09-27T15:59:25.796Z,20.71
2023-09-27T16:01:53.055Z,20.67
2023-09-27T16:04:21.563Z,20.64
2023-09-27T16:06:48.207Z,20.63
2023-09-27T16:09:16.525Z,20.63
2023-09-27T16:11:44.201Z,20.63
2023-09-27T16:14:11.343Z,20.66
2023-09-27T16:16:38.089Z,20.64
2023-09-27T16:19:05.073Z,20.61
2023-09-27T16:21:33.136Z,20.61
2023-09-27T16:24:01.496Z,20.63
2023-09-27T16:26:28.491Z,20.62
2023-09-27T16:28:55.205Z,20.60
2023-09-27T16:31:22.603Z,20.59
2023-09-27T16:33:49.533Z,20.59
2023-09-27T16:36:17.784Z,20.61
2023-09-27T16:38:45.818Z,20.59
2023-09-27T16:41:12.473Z,20.58
2023-09-27T16:43:40.979Z,20.58
2023-09-27T16:46:10.473Z,20.57
2023-09-27T16:48:37.594Z,20.59
2023-09-27T16:51:04.206Z,20.59
2023-09-27T16:53:30.831Z,20.57
2023-09-27T16:55:58.831Z,20.57
2023-09-27T16:58:28.290Z,20.56
2023-09-27T17:00:56.615Z,20.57
2023-09-27T17:03:23.388Z,20.55
2023-09-27T17:05:50.192Z,20.57
2023-09-27T17:08:19.739Z,20.54
2023-09-27T17:10:46.924Z,20.55
2023-09-27T17:13:14.960Z,20.53
2023-09-27T17:15:42.741Z,20.52
2023-09-27T17:18:09.387Z,20.54
2023-09-27T17:20:36.041Z,20.53
2023-09-27T17:23:04.244Z,20.52
2023-09-27T17:25:30.971Z,20.51
2023-09-27T17:27:57.640Z,20.51
2023-09-27T17:30:25.752Z,20.50
2023-09-27T17:32:52.430Z,20.49
2023-09-27T17:35:19.207Z,20.49
2023-09-27T17:37:46.038Z,20.49
2023-09-27T17:40:13.217Z,20.47
2023-09-27T17:42:39.924Z,20.47
2023-09-27T17:45:09.223Z,20.46
2023-09-27T17:47:37.380Z,20.44
2023-09-27T17:50:04.949Z,20.45
2023-09-27T17:52:31.746Z,20.46
2023-09-27T17:54:58.477Z,20.44
2023-09-27T17:57:25.098Z,20.44
2023-09-27T17:59:51.714Z,20.46
2023-09-27T18:02:18.542Z,20.42
2023-09-27T18:04:46.905Z,20.41
2023-09-27T18:07:13.775Z,20.40
2023-09-27T18:09:40.513Z,20.39
2023-09-27T18:12:07.661Z,20.37
2023-09-27T18:14:34.279Z,20.37
2023-09-27T18:17:01.046Z,20.39
2023-09-27T18:19:27.808Z,20.38
2023-09-27T18:21:55.819Z,20.38
2023-09-27T18:24:22.726Z,20.34
2023-09-27T18:26:49.389Z,20.31
2023-09-27T18:29:16.153Z,20.31
2023-09-27T18:31:45.596Z,20.31
2023-09-27T18:34:12.943Z,20.29
2023-09-27T18:36:39.632Z,20.29
2023-09-27T18:39:07.649Z,20.25
2023-09-27T18:41:34.281Z,20.25
2023-09-27T18:44:01.078Z,20.26
2023-09-27T18:46:27.838Z,20.30
2023-09-27T18:48:54.718Z,20.28
2023-09-27T18:51:22.268Z,20.23
2023-09-27T18:53:49.488Z,20.25
2023-09-27T18:56:18.518Z,20.23
2023-09-27T18:58:45.325Z,20.23
2023-09-27T19:01:12.530Z,20.24
2023-09-27T19:03:39.274Z,20.23
2023-09-27T19:06:06.240Z,20.28
2023-09-27T19:08:32.958Z,19.84
2023-09-27T19:10:59.672Z,19.81
2023-09-27T19:13:27.826Z,20.08
2023-09-27T19:15:57.006Z,20.13
2023-09-27T19:18:23.677Z,20.18
2023-09-27T19:20:50.448Z,20.15
2023-09-27T19:23:17.070Z,20.13
2023-09-27T19:25:43.725Z,20.13
2023-09-27T19:28:10.484Z,20.11
2023-09-27T19:30:40.701Z,20.09
2023-09-27T19:33:08.575Z,20.05
2023-09-27T19:35:35.343Z,20.05
2023-09-27T19:38:02.019Z,20.03
2023-09-27T19:40:28.651Z,20.08
2023-09-27T19:42:55.312Z,20.05
2023-09-27T19:45:22.464Z,19.99
2023-09-27T19:47:50.501Z,19.99
2023-09-27T19:50:17.377Z,19.97
2023-09-27T19:52:45.603Z,20.01
2023-09-27T19:55:12.951Z,20.03
2023-09-27T19:57:39.584Z,19.92
2023-09-27T20:00:09.228Z,19.92
2023-09-27T20:02:35.962Z,20.00
2023-09-27T20:05:04.395Z,19.95
2023-09-27T20:07:31.470Z,19.94
2023-09-27T20:09:58.111Z,19.90
2023-09-27T20:12:24.839Z,19.92
2023-09-27T20:14:51.563Z,19.96
2023-09-27T20:17:18.517Z,19.91
2023-09-27T20:19:45.175Z,19.84
2023-09-27T20:22:13.336Z,19.85
2023-09-27T20:24:40.318Z,19.85
2023-09-27T20:27:06.948Z,19.90
2023-09-27T20:29:33.691Z,19.88
2023-09-27T20:32:00.513Z,19.89
2023-09-27T20:34:27.242Z,19.81
2023-09-27T20:36:53.874Z,19.74
2023-09-27T20:39:21.911Z,19.79
2023-09-27T20:41:48.557Z,19.81
2023-09-27T20:44:15.320Z,19.78
2023-09-27T20:46:42.104Z,19.70
2023-09-27T20:49:08.789Z,19.72
2023-09-27T20:51:35.398Z,19.70
2023-09-27T20:54:02.352Z,19.61
2023-09-27T20:56:30.552Z,19.61
2023-09-27T20:58:57.210Z,19.66
2023-09-27T21:01:28.975Z,19.66
2023-09-27T21:03:55.973Z,19.62
2023-09-27T21:06:28.658Z,19.70
2023-09-27T21:08:56.667Z,16.91
2023-09-27T21:11:24.730Z,16.06
2023-09-27T21:13:58.303Z,18.59
2023-09-27T21:16:26.287Z,19.25
2023-09-27T21:18:54.303Z,19.39
2023-09-27T21:21:21.766Z,19.44
2023-09-27T21:23:48.434Z,19.43
2023-09-27T21:26:15.159Z,19.46
2023-09-27T21:28:41.986Z,19.44
2023-09-27T21:31:11.701Z,19.41
2023-09-27T21:33:38.518Z,19.42
2023-09-27T21:36:05.620Z,19.39
2023-09-27T21:38:32.279Z,19.36
2023-09-27T21:40:59.105Z,19.31
2023-09-27T21:43:25.907Z,19.30
2023-09-27T21:45:53.017Z,19.29
2023-09-27T21:48:25.082Z,19.31
2023-09-27T21:50:52.137Z,19.34
2023-09-27T21:53:18.790Z,19.30
2023-09-27T21:55:45.426Z,19.26
2023-09-27T21:58:12.078Z,17.33
2023-09-27T22:00:38.782Z,16.61
2023-09-27T22:03:05.903Z,18.75
2023-09-27T22:05:34.422Z,19.07
2023-09-27T22:08:01.570Z,19.17
2023-09-27T22:10:35.349Z,19.13
2023-09-27T22:13:22.322Z,19.15
2023-09-27T22:15:54.316Z,18.26
2023-09-27T22:18:21.960Z,18.97
2023-09-27T22:20:50.523Z,19.02
2023-09-27T22:23:32.363Z,19.01
2023-09-27T22:26:00.325Z,19.00
2023-09-27T22:28:30.026Z,15.94
2023-09-27T22:30:56.880Z,18.15
2023-09-27T22:33:30.532Z,18.78
2023-09-27T22:35:58.674Z,18.90
2023-09-27T22:38:25.299Z,18.98
2023-09-27T22:40:52.291Z,18.96
2023-09-27T22:43:19.102Z,18.95
2023-09-27T22:45:49.177Z,19.00
2023-09-27T22:48:16.983Z,19.05
2023-09-27T22:50:49.499Z,17.92
2023-09-27T22:53:19.138Z,18.73
2023-09-27T22:56:00.084Z,18.89
2023-09-27T22:58:28.740Z,18.85
2023-09-27T23:00:58.528Z,18.86
2023-09-27T23:03:27.865Z,18.84
2023-09-27T23:05:57.110Z,18.78
2023-09-27T23:08:28.451Z,15.60
2023-09-27T23:10:56.339Z,18.19
2023-09-27T23:13:29.299Z,18.62
2023-09-27T23:15:56.365Z,18.56
2023-09-27T23:18:30.962Z,18.43
2023-09-27T23:20:58.949Z,17.06
2023-09-27T23:23:27.117Z,18.41
2023-09-27T23:25:55.274Z,18.59
2023-09-27T23:28:31.152Z,18.68
2023-09-27T23:31:09.115Z,18.68
2023-09-27T23:33:42.679Z,15.23
2023-09-27T23:36:23.833Z,16.30
2023-09-27T23:38:58.277Z,18.14
2023-09-27T23:41:32.042Z,18.43
2023-09-27T23:44:05.917Z,18.52
2023-09-27T23:46:38.335Z,18.55
2023-09-27T23:49:05.578Z,18.60
2023-09-27T23:51:33.192Z,18.60
2023-09-27T23:54:03.682Z,18.57
2023-09-27T23:56:35.690Z,18.42
2023-09-27T23:59:21.052Z,18.43
